createdAt,value
2022-08-28T00:00:46.674Z,84
2022-08-28T00:01:55.854Z,84.5
2022-08-28T00:03:05.028Z,84
2022-08-28T00:04:13.220Z,84
2022-08-28T00:05:21.411Z,85.5
2022-08-28T00:06:30.576Z,83.5
2022-08-28T00:07:39.757Z,83.5
2022-08-28T00:08:48.918Z,84
2022-08-28T00:09:58.096Z,83.5
2022-08-28T00:11:07.269Z,83.5
2022-08-28T00:12:16.440Z,83.5
2022-08-28T00:13:25.615Z,83.5
2022-08-28T00:14:34.791Z,83.5
2022-08-28T00:15:43.952Z,83
2022-08-28T00:16:53.124Z,83.5
2022-08-28T00:18:02.307Z,83.5
2022-08-28T00:19:11.490Z,83.5
2022-08-28T00:20:19.673Z,83.5
2022-08-28T00:21:28.843Z,84
2022-08-28T00:22:38.040Z,83.5
2022-08-28T00:23:47.188Z,83.5
2022-08-28T00:24:55.370Z,84.5
2022-08-28T00:26:03.562Z,83.5
2022-08-28T00:27:12.748Z,83.5
2022-08-28T00:28:21.905Z,84
2022-08-28T00:29:31.080Z,83.5
2022-08-28T00:30:40.265Z,83.5
2022-08-28T00:31:49.445Z,83.5
2022-08-28T00:32:58.596Z,84.5
2022-08-28T00:34:07.779Z,84
2022-08-28T00:35:16.962Z,84
2022-08-28T00:36:26.118Z,84.5
2022-08-28T00:37:35.293Z,85.5
2022-08-28T00:38:44.465Z,84.5
2022-08-28T00:39:53.634Z,84
2022-08-28T00:41:01.826Z,87
2022-08-28T00:42:11.010Z,84.5
2022-08-28T00:43:20.168Z,83.5
2022-08-28T00:44:29.339Z,84.5
2022-08-28T00:45:38.527Z,84.5
2022-08-28T00:46:47.693Z,84.5
2022-08-28T00:47:56.865Z,84.5
2022-08-28T00:49:05.058Z,84.5
2022-08-28T00:50:13.251Z,85
2022-08-28T00:51:22.418Z,85
2022-08-28T00:52:31.595Z,85.5
2022-08-28T00:53:40.762Z,86
2022-08-28T00:54:49.947Z,86
2022-08-28T00:58:17.470Z,86
2022-08-28T00:59:25.647Z,86.5
2022-08-28T01:00:33.844Z,86
2022-08-28T01:01:43.004Z,86
2022-08-28T01:04:01.351Z,86
2022-08-28T01:05:10.522Z,87.5
2022-08-28T01:06:19.699Z,86
2022-08-28T01:07:28.880Z,85
2022-08-28T01:08:38.036Z,86.5
2022-08-28T01:09:47.220Z,86.5
2022-08-28T01:10:56.403Z,86
2022-08-28T01:12:05.571Z,87
2022-08-28T01:13:14.734Z,85.5
2022-08-28T01:14:23.908Z,88
2022-08-28T01:15:33.069Z,87.5
2022-08-28T01:16:41.271Z,86
2022-08-28T01:17:50.445Z,86
2022-08-28T01:18:59.608Z,86
2022-08-28T01:20:08.788Z,86.5
2022-08-28T01:21:17.959Z,86.5
2022-08-28T01:22:27.122Z,87
2022-08-28T01:23:36.295Z,90
2022-08-28T01:24:45.474Z,86.5
2022-08-28T01:25:54.651Z,88
2022-08-28T01:27:03.825Z,86.5
2022-08-28T01:28:12.997Z,87
2022-08-28T01:29:22.163Z,87
2022-08-28T01:30:31.335Z,87.5
2022-08-28T01:32:48.692Z,87.5
2022-08-28T01:33:57.871Z,87.5
2022-08-28T01:35:07.043Z,87.5
2022-08-28T01:36:16.215Z,87.5
2022-08-28T01:37:25.381Z,88.5
2022-08-28T01:38:34.553Z,88
2022-08-28T01:39:43.718Z,88
2022-08-28T01:40:52.906Z,91.5
2022-08-28T01:42:02.076Z,88.5
2022-08-28T01:43:11.262Z,88.5
2022-08-28T01:44:20.429Z,88
2022-08-28T01:45:29.604Z,89.5
2022-08-28T01:46:37.769Z,88
2022-08-28T01:47:46.946Z,88.5
2022-08-28T01:48:56.139Z,88.5
2022-08-28T01:50:05.297Z,94.5
2022-08-28T01:51:14.468Z,88
2022-08-28T01:52:23.640Z,87.5
2022-08-28T01:53:32.819Z,89.5
2022-08-28T01:54:41.988Z,88
2022-08-28T01:55:51.156Z,87.5
2022-08-28T01:57:00.341Z,87.5
2022-08-28T01:58:09.503Z,87.5
2022-08-28T01:59:18.684Z,88
2022-08-28T02:00:27.851Z,88
2022-08-28T02:01:36.049Z,88
2022-08-28T02:02:45.211Z,88.5
2022-08-28T02:03:54.395Z,88.5
2022-08-28T02:05:03.562Z,88.5
2022-08-28T02:06:12.723Z,89
2022-08-28T02:07:21.903Z,89
2022-08-28T02:08:31.077Z,89
2022-08-28T02:09:40.247Z,90
2022-08-28T02:10:49.419Z,89.5
2022-08-28T02:11:58.600Z,89.5
2022-08-28T02:13:07.780Z,89.5
2022-08-28T02:14:16.939Z,91
2022-08-28T02:15:26.137Z,89.5
2022-08-28T02:16:34.305Z,89.5
2022-08-28T02:17:43.481Z,89.5
2022-08-28T02:18:52.649Z,89.5
2022-08-28T02:20:01.818Z,89.5
2022-08-28T02:21:10.984Z,89.5
2022-08-28T02:22:19.189Z,90
2022-08-28T02:23:28.364Z,90
2022-08-28T02:24:36.542Z,90.5
2022-08-28T02:25:45.712Z,90
2022-08-28T02:26:54.891Z,94
2022-08-28T02:28:04.057Z,89.5
2022-08-28T02:29:13.229Z,89.5
2022-08-28T02:30:22.416Z,89.5
2022-08-28T02:31:31.583Z,90
2022-08-28T02:32:40.754Z,90
2022-08-28T02:33:49.927Z,91
2022-08-28T02:34:59.098Z,90.5
2022-08-28T02:36:08.278Z,91
2022-08-28T02:37:17.452Z,91
2022-08-28T02:38:26.616Z,91.5
2022-08-28T02:39:34.817Z,91.5
2022-08-28T02:41:52.172Z,92
2022-08-28T02:43:00.360Z,92
2022-08-28T02:44:09.535Z,92
2022-08-28T02:45:18.714Z,92.5
2022-08-28T02:46:27.886Z,92.5
2022-08-28T02:47:37.054Z,92.5
2022-08-28T02:48:46.225Z,93
2022-08-28T02:49:55.395Z,93
2022-08-28T02:51:04.590Z,93
2022-08-28T02:52:13.747Z,93
2022-08-28T02:53:22.920Z,93
2022-08-28T02:54:32.099Z,93.5
2022-08-28T02:55:41.279Z,94
2022-08-28T02:56:50.435Z,93.5
2022-08-28T02:57:58.625Z,93.5
2022-08-28T02:59:07.799Z,94
2022-08-28T03:00:16.987Z,94
2022-08-28T03:01:26.153Z,94.5
2022-08-28T03:02:35.306Z,94.5
2022-08-28T03:03:44.493Z,95
2022-08-28T03:04:53.649Z,95
2022-08-28T03:06:02.835Z,95
2022-08-28T03:07:12.002Z,96
2022-08-28T03:08:21.164Z,95
2022-08-28T03:09:30.349Z,95
2022-08-28T03:10:39.513Z,95
2022-08-28T03:11:48.695Z,95
2022-08-28T03:12:56.871Z,95
2022-08-28T03:14:06.053Z,95
2022-08-28T03:15:15.217Z,95
2022-08-28T03:16:24.398Z,95.5
2022-08-28T03:17:33.581Z,95.5
2022-08-28T03:18:42.733Z,95.5
2022-08-28T03:19:51.917Z,95.5
2022-08-28T03:21:01.091Z,95.5
2022-08-28T03:22:10.265Z,96
2022-08-28T03:23:19.426Z,96
2022-08-28T03:24:28.608Z,96
2022-08-28T03:25:37.774Z,96.5
2022-08-28T03:26:46.939Z,96.5
2022-08-28T03:27:55.140Z,97
2022-08-28T03:29:04.308Z,97
2022-08-28T03:30:13.485Z,96.5
2022-08-28T03:31:22.656Z,96.5
2022-08-28T03:32:31.822Z,96.5
2022-08-28T03:33:41.006Z,96.5
2022-08-28T03:34:49.182Z,96.5
2022-08-28T03:35:57.381Z,96.5
2022-08-28T03:37:06.541Z,96.5
2022-08-28T03:39:24.888Z,97
2022-08-28T03:40:34.068Z,97
2022-08-28T03:41:43.248Z,97
2022-08-28T03:42:52.416Z,98
2022-08-28T03:44:01.586Z,97.5
2022-08-28T03:45:10.761Z,97
2022-08-28T03:46:19.929Z,97.5
2022-08-28T03:47:29.100Z,97.5
2022-08-28T03:48:37.292Z,97
2022-08-28T03:49:45.500Z,97
2022-08-28T03:50:54.651Z,97.5
2022-08-28T03:52:03.837Z,97
2022-08-28T03:53:13.019Z,97
2022-08-28T03:54:22.168Z,97
2022-08-28T03:55:31.340Z,97
2022-08-28T03:56:40.523Z,97
2022-08-28T03:57:49.702Z,97
2022-08-28T03:58:58.863Z,97
2022-08-28T04:00:08.037Z,97
2022-08-28T04:01:17.216Z,97
2022-08-28T04:02:26.385Z,98.5
2022-08-28T04:03:35.557Z,97.5
2022-08-28T04:04:43.746Z,97
2022-08-28T04:05:52.922Z,97.5
2022-08-28T04:07:02.095Z,98.5
2022-08-28T04:08:11.265Z,98.5
2022-08-28T04:09:20.439Z,98.5
2022-08-28T04:10:29.611Z,97
2022-08-28T04:11:38.775Z,98
2022-08-28T04:12:47.952Z,97
2022-08-28T04:13:57.121Z,97.5
2022-08-28T04:15:06.292Z,97
2022-08-28T04:16:15.468Z,97.5
2022-08-28T04:17:24.649Z,97.5
2022-08-28T04:18:33.812Z,98
2022-08-28T04:19:42.000Z,97.5
2022-08-28T04:20:51.177Z,99.5
2022-08-28T04:22:00.360Z,99
2022-08-28T04:23:09.532Z,97.5
2022-08-28T04:24:18.693Z,97.5
2022-08-28T04:25:27.862Z,98.5
2022-08-28T04:26:37.042Z,97.5
2022-08-28T04:28:55.398Z,96.5
2022-08-28T04:30:04.572Z,97
2022-08-28T04:31:13.731Z,99
2022-08-28T04:32:22.894Z,98
2022-08-28T04:33:32.083Z,98
2022-08-28T04:34:40.263Z,98.5
2022-08-28T04:35:49.438Z,97.5
2022-08-28T04:36:58.616Z,97.5
2022-08-28T04:38:07.786Z,98
2022-08-28T04:39:16.956Z,98
2022-08-28T04:40:26.126Z,98
2022-08-28T04:41:35.309Z,98
2022-08-28T04:42:44.479Z,98
2022-08-28T04:43:53.650Z,97.5
2022-08-28T04:45:02.832Z,97.5
2022-08-28T04:46:11.998Z,97.5
2022-08-28T04:47:21.160Z,97.5
2022-08-28T04:48:30.326Z,98.5
2022-08-28T04:49:38.529Z,98
2022-08-28T04:50:47.708Z,98
2022-08-28T04:51:56.886Z,98
2022-08-28T04:53:06.049Z,98
2022-08-28T04:54:15.226Z,98
2022-08-28T04:55:24.405Z,98.5
2022-08-28T04:56:33.560Z,98.5
2022-08-28T04:57:42.739Z,98.5
2022-08-28T04:58:51.907Z,98.5
2022-08-28T05:00:01.082Z,99
2022-08-28T05:01:10.260Z,98.5
2022-08-28T05:02:19.427Z,98.5
2022-08-28T05:03:28.608Z,98.5
2022-08-28T05:04:36.799Z,98
2022-08-28T05:05:45.970Z,98.5
2022-08-28T05:06:55.151Z,98.5
2022-08-28T05:08:04.312Z,98.5
2022-08-28T05:09:13.480Z,98.5
2022-08-28T05:10:22.668Z,98.5
2022-08-28T05:11:31.834Z,98.5
2022-08-28T05:12:41.004Z,99.5
2022-08-28T05:13:50.184Z,99
2022-08-28T05:14:59.353Z,98
2022-08-28T05:16:08.522Z,97.5
2022-08-28T05:17:17.690Z,97.5
2022-08-28T05:18:26.868Z,97.5
2022-08-28T05:19:35.066Z,97.5
2022-08-28T05:20:44.219Z,96.5
2022-08-28T05:21:53.412Z,96
2022-08-28T05:23:02.566Z,96.5
2022-08-28T05:24:11.766Z,98
2022-08-28T05:25:20.925Z,95.5
2022-08-28T05:26:30.089Z,94.5
2022-08-28T05:27:39.271Z,94
2022-08-28T05:28:48.441Z,94
2022-08-28T05:29:57.615Z,95
2022-08-28T05:31:06.785Z,97.5
2022-08-28T05:32:15.964Z,95
2022-08-28T05:33:25.142Z,93
2022-08-28T05:34:33.320Z,92.5
2022-08-28T05:35:42.488Z,92
2022-08-28T05:36:51.660Z,93
2022-08-28T05:38:00.822Z,90.5
2022-08-28T05:39:09.994Z,88.5
2022-08-28T05:40:19.172Z,88
2022-08-28T05:41:28.360Z,87.5
2022-08-28T05:42:37.530Z,87.5
2022-08-28T05:43:46.689Z,87
2022-08-28T05:44:55.871Z,86
2022-08-28T05:46:05.046Z,86.5
2022-08-28T05:47:14.207Z,87.5
2022-08-28T05:48:23.383Z,86.5
2022-08-28T05:49:31.576Z,87.5
2022-08-28T05:50:40.775Z,86
2022-08-28T05:51:49.925Z,87
2022-08-28T05:52:59.090Z,84
2022-08-28T05:54:08.256Z,83
2022-08-28T05:55:17.425Z,83
2022-08-28T05:56:26.610Z,85.5
2022-08-28T05:57:35.781Z,87
2022-08-28T05:58:44.954Z,82
2022-08-28T05:59:54.134Z,82.5
2022-08-28T06:01:03.299Z,81.5
2022-08-28T06:02:12.477Z,81.5
2022-08-28T06:03:21.641Z,81
2022-08-28T06:04:29.846Z,84
2022-08-28T06:05:39.015Z,80.5
2022-08-28T06:06:48.184Z,78.5
2022-08-28T06:07:57.354Z,80
2022-08-28T06:09:06.515Z,82
2022-08-28T06:10:15.694Z,80.5
2022-08-28T06:11:24.868Z,80.5
2022-08-28T06:12:34.043Z,81.5
2022-08-28T06:13:43.230Z,82.5
2022-08-28T06:14:52.386Z,84
2022-08-28T06:16:01.556Z,85
2022-08-28T06:17:10.734Z,85
2022-08-28T06:18:19.902Z,85
2022-08-28T06:19:28.096Z,81
2022-08-28T06:20:37.271Z,82
2022-08-28T06:21:46.433Z,81.5
2022-08-28T06:22:55.624Z,82.5
2022-08-28T06:24:04.812Z,83.5
2022-08-28T06:25:13.954Z,82
2022-08-28T06:26:23.144Z,81.5
2022-08-28T06:27:32.311Z,79.5
2022-08-28T06:28:41.476Z,79
2022-08-28T06:29:50.656Z,78.5
2022-08-28T06:30:59.815Z,79
2022-08-28T06:32:08.992Z,78.5
2022-08-28T06:33:18.170Z,82
2022-08-28T06:34:26.369Z,79
2022-08-28T06:35:35.529Z,77
2022-08-28T06:36:44.696Z,79
2022-08-28T06:37:53.875Z,77.5
2022-08-28T06:39:03.053Z,78.5
2022-08-28T06:40:12.219Z,75.5
2022-08-28T06:41:21.386Z,76.5
2022-08-28T06:42:30.563Z,76
2022-08-28T06:43:39.726Z,74
2022-08-28T06:44:48.903Z,75
2022-08-28T06:45:58.093Z,74.5
2022-08-28T06:47:07.265Z,72.5
2022-08-28T06:48:16.418Z,72
2022-08-28T06:49:25.595Z,71.5
2022-08-28T06:51:43.939Z,71
2022-08-28T06:52:52.133Z,70
2022-08-28T06:54:01.306Z,72.5
2022-08-28T06:55:10.474Z,74
2022-08-28T06:56:19.649Z,75
2022-08-28T06:57:28.827Z,74.5
2022-08-28T06:58:37.999Z,76
2022-08-28T06:59:47.167Z,75.5
2022-08-28T07:00:56.332Z,75.5
2022-08-28T07:02:05.509Z,76
2022-08-28T07:03:14.688Z,75.5
2022-08-28T07:04:23.854Z,75.5
2022-08-28T07:05:33.023Z,76.5
2022-08-28T07:06:42.192Z,76.5
2022-08-28T07:07:51.377Z,76
2022-08-28T07:08:59.557Z,76.5
2022-08-28T07:10:08.729Z,75
2022-08-28T07:11:17.913Z,75
2022-08-28T07:12:27.074Z,74.5
2022-08-28T07:13:36.244Z,75
2022-08-28T07:14:45.410Z,73
2022-08-28T07:15:54.601Z,74
2022-08-28T07:17:03.771Z,74.5
2022-08-28T07:18:12.928Z,75
2022-08-28T07:19:22.098Z,74.5
2022-08-28T07:20:31.293Z,74.5
2022-08-28T07:21:40.458Z,73.5
2022-08-28T07:22:49.625Z,73
2022-08-28T07:23:57.803Z,71.5
2022-08-28T07:25:06.998Z,71
2022-08-28T07:26:16.165Z,71
2022-08-28T07:27:25.336Z,71.5
2022-08-28T07:28:34.497Z,71
2022-08-28T07:29:43.678Z,70.5
2022-08-28T07:30:52.849Z,69
2022-08-28T07:32:02.021Z,68
2022-08-28T07:33:11.183Z,69.5
2022-08-28T07:34:20.370Z,68.5
2022-08-28T07:35:29.537Z,70
2022-08-28T07:36:38.732Z,69.5
2022-08-28T07:37:47.883Z,70
2022-08-28T07:38:56.072Z,71
2022-08-28T07:40:05.238Z,71
2022-08-28T07:41:14.427Z,70
2022-08-28T07:42:23.590Z,69.5
2022-08-28T07:43:32.758Z,69.5
2022-08-28T07:44:41.934Z,69.5
2022-08-28T07:45:51.093Z,70
2022-08-28T07:47:00.275Z,69
2022-08-28T07:48:09.460Z,70.5
2022-08-28T07:49:18.628Z,68.5
2022-08-28T07:50:27.792Z,69
2022-08-28T07:51:36.974Z,68.5
2022-08-28T07:52:46.137Z,67.5
2022-08-28T07:53:54.319Z,67
2022-08-28T07:55:03.497Z,67.5
2022-08-28T07:56:12.668Z,67.5
2022-08-28T07:57:21.852Z,66
2022-08-28T07:58:31.010Z,66.5
2022-08-28T07:59:40.191Z,65
2022-08-28T08:00:49.364Z,65
2022-08-28T08:01:58.534Z,64.5
2022-08-28T08:03:07.704Z,62.5
2022-08-28T08:04:16.884Z,63
2022-08-28T08:05:26.046Z,63
2022-08-28T08:06:35.222Z,64
2022-08-28T08:07:44.396Z,62
2022-08-28T08:08:52.583Z,61.5
2022-08-28T08:10:01.772Z,63
2022-08-28T08:11:10.923Z,60.5
2022-08-28T08:12:20.112Z,62.5
2022-08-28T08:13:29.274Z,65.5
2022-08-28T08:14:38.438Z,66
2022-08-28T08:15:47.620Z,65
2022-08-28T08:16:56.789Z,62.5
2022-08-28T08:18:05.958Z,62.5
2022-08-28T08:19:15.135Z,62.5
2022-08-28T08:20:24.296Z,62
2022-08-28T08:21:33.482Z,61.5
2022-08-28T08:22:42.654Z,61
2022-08-28T08:23:50.835Z,61.5
2022-08-28T08:25:00.006Z,63.5
2022-08-28T08:26:09.196Z,63.5
2022-08-28T08:27:18.352Z,63.5
2022-08-28T08:28:27.542Z,63
2022-08-28T08:29:36.704Z,62
2022-08-28T08:30:45.873Z,61
2022-08-28T08:31:55.070Z,59
2022-08-28T08:33:04.228Z,60.5
2022-08-28T08:34:13.395Z,60
2022-08-28T08:35:22.568Z,59.5
2022-08-28T08:36:31.736Z,61
2022-08-28T08:37:40.908Z,61.5
2022-08-28T08:38:49.105Z,62.5
2022-08-28T08:39:58.275Z,60
2022-08-28T08:41:07.451Z,59.5
2022-08-28T08:42:16.625Z,60.5
2022-08-28T08:43:25.787Z,61
2022-08-28T08:44:34.967Z,61.5
2022-08-28T08:45:44.131Z,61.5
2022-08-28T08:46:53.310Z,61
2022-08-28T08:48:02.485Z,59.5
2022-08-28T08:49:11.649Z,59
2022-08-28T08:50:20.818Z,58.5
2022-08-28T08:51:29.990Z,59.5
2022-08-28T08:52:39.172Z,61.5
2022-08-28T08:53:47.372Z,62.5
2022-08-28T08:54:56.533Z,63.5
2022-08-28T08:56:05.709Z,63.5
2022-08-28T08:57:14.871Z,63.5
2022-08-28T08:58:24.048Z,63.5
2022-08-28T08:59:33.236Z,63
2022-08-28T09:00:42.393Z,63.5
2022-08-28T09:01:51.563Z,64.5
2022-08-28T09:03:00.738Z,63
2022-08-28T09:04:09.911Z,63
2022-08-28T09:05:19.100Z,62
2022-08-28T09:06:28.259Z,59.5
2022-08-28T09:07:37.430Z,58
2022-08-28T09:08:46.603Z,57
2022-08-28T09:09:54.788Z,57.5
2022-08-28T09:11:03.957Z,57
2022-08-28T09:12:13.131Z,58.5
2022-08-28T09:13:22.314Z,58.5
2022-08-28T09:14:31.479Z,58
2022-08-28T09:15:40.670Z,57.5
2022-08-28T09:16:49.822Z,55.5
2022-08-28T09:17:58.996Z,56.5
2022-08-28T09:19:08.188Z,56.5
2022-08-28T09:20:17.347Z,56.5
2022-08-28T09:21:26.517Z,55.5
2022-08-28T09:22:35.694Z,55
2022-08-28T09:23:44.882Z,54
2022-08-28T09:24:53.045Z,55
2022-08-28T09:26:02.217Z,55.5
2022-08-28T09:27:11.392Z,54.5
2022-08-28T09:28:20.562Z,55.5
2022-08-28T09:29:29.728Z,53.5
2022-08-28T09:30:38.918Z,55
2022-08-28T09:31:48.101Z,56.5
2022-08-28T09:32:57.270Z,55.5
2022-08-28T09:34:06.429Z,53.5
2022-08-28T09:35:15.602Z,53.5
2022-08-28T09:36:24.767Z,54
2022-08-28T09:37:33.931Z,54
2022-08-28T09:38:43.117Z,55
2022-08-28T09:39:51.310Z,55.5
2022-08-28T09:41:00.483Z,55.5
2022-08-28T09:42:09.638Z,53.5
2022-08-28T09:43:18.829Z,54.5
2022-08-28T09:44:27.994Z,56.5
2022-08-28T09:45:37.172Z,58.5
2022-08-28T09:46:46.333Z,55.5
2022-08-28T09:47:55.518Z,55.5
2022-08-28T09:49:04.686Z,55.5
2022-08-28T09:50:13.857Z,56
2022-08-28T09:51:23.029Z,55
2022-08-28T09:52:32.198Z,54.5
2022-08-28T09:53:41.377Z,53
2022-08-28T09:54:49.562Z,53
2022-08-28T09:55:58.741Z,51.5
2022-08-28T09:57:07.904Z,53.5
2022-08-28T09:58:17.073Z,53
2022-08-28T09:59:26.255Z,53.5
2022-08-28T10:00:35.423Z,54
2022-08-28T10:01:44.603Z,54.5
2022-08-28T10:02:53.775Z,56
2022-08-28T10:04:02.951Z,57
2022-08-28T10:05:12.125Z,55.5
2022-08-28T10:06:21.293Z,54
2022-08-28T10:07:30.458Z,52.5
2022-08-28T10:08:39.635Z,52
2022-08-28T10:09:47.828Z,50.5
2022-08-28T10:10:57.001Z,50.5
2022-08-28T10:12:06.160Z,50
2022-08-28T10:13:15.342Z,52
2022-08-28T10:14:24.517Z,53.5
2022-08-28T10:15:33.680Z,55.5
2022-08-28T10:16:42.865Z,56
2022-08-28T10:17:52.024Z,56
2022-08-28T10:19:01.192Z,56.5
2022-08-28T10:20:10.367Z,54.5
2022-08-28T10:21:19.548Z,53
2022-08-28T10:23:37.884Z,52
2022-08-28T10:24:46.074Z,54
2022-08-28T10:25:54.267Z,54.5
2022-08-28T10:28:12.603Z,52.5
2022-08-28T10:29:21.783Z,53
2022-08-28T10:30:30.958Z,51.5
2022-08-28T10:31:40.141Z,51
2022-08-28T10:32:49.313Z,49.5
2022-08-28T10:33:58.472Z,48.5
2022-08-28T10:35:07.656Z,47
2022-08-28T10:36:16.829Z,47.5
2022-08-28T10:37:25.996Z,49
2022-08-28T10:38:34.191Z,48.5
2022-08-28T10:39:42.386Z,49
2022-08-28T10:40:51.548Z,51
2022-08-28T10:42:00.717Z,51.5
2022-08-28T10:43:08.919Z,50.5
2022-08-28T10:44:17.106Z,50
2022-08-28T10:45:26.277Z,50
2022-08-28T10:46:35.445Z,50.5
2022-08-28T10:47:44.648Z,51
2022-08-28T10:48:53.820Z,48
2022-08-28T10:50:02.967Z,49
2022-08-28T10:51:12.135Z,49.5
2022-08-28T10:52:21.325Z,49
2022-08-28T10:53:30.493Z,49.5
2022-08-28T10:54:39.669Z,48
2022-08-28T10:55:48.823Z,49
2022-08-28T10:56:58.006Z,49
2022-08-28T10:58:07.179Z,49
2022-08-28T10:59:15.363Z,48
2022-08-28T11:00:24.539Z,47.5
2022-08-28T11:01:33.700Z,48
2022-08-28T11:02:42.887Z,45.5
2022-08-28T11:03:52.054Z,47.5
2022-08-28T11:05:01.236Z,48.5
2022-08-28T11:06:10.401Z,49
2022-08-28T11:07:19.570Z,47.5
2022-08-28T11:08:28.737Z,48
2022-08-28T11:09:37.906Z,46
2022-08-28T11:10:47.085Z,47
2022-08-28T11:11:56.262Z,48
2022-08-28T11:13:05.433Z,49
2022-08-28T11:14:13.627Z,49.5
2022-08-28T11:15:22.784Z,48.5
2022-08-28T11:16:31.967Z,49
2022-08-28T11:17:41.141Z,46.5
2022-08-28T11:18:50.328Z,45.5
2022-08-28T11:19:59.480Z,43.5
2022-08-28T11:22:17.833Z,47
2022-08-28T11:23:27.008Z,49
2022-08-28T11:24:36.193Z,49.5
2022-08-28T11:25:45.354Z,51
2022-08-28T11:26:54.520Z,51
2022-08-28T11:28:03.689Z,51
2022-08-28T11:29:11.884Z,50.5
2022-08-28T11:30:21.065Z,48.5
2022-08-28T11:31:30.224Z,47.5
2022-08-28T11:32:39.394Z,46
2022-08-28T11:33:48.567Z,46
2022-08-28T11:34:57.746Z,45
2022-08-28T11:36:06.915Z,44.5
2022-08-28T11:37:16.085Z,46
2022-08-28T11:38:25.264Z,45.5
2022-08-28T11:39:34.430Z,45
2022-08-28T11:40:43.598Z,46.5
2022-08-28T11:41:52.781Z,47
2022-08-28T11:43:01.953Z,46
2022-08-28T11:44:10.142Z,45.5
2022-08-28T11:45:19.319Z,46
2022-08-28T11:46:28.478Z,46
2022-08-28T11:47:37.649Z,45
2022-08-28T11:48:46.833Z,44.5
2022-08-28T11:49:56.005Z,46
2022-08-28T11:51:05.161Z,45
2022-08-28T11:52:14.353Z,44
2022-08-28T11:53:23.508Z,46.5
2022-08-28T11:54:32.699Z,45.5
2022-08-28T11:55:41.866Z,45
2022-08-28T11:56:51.041Z,46.5
2022-08-28T11:59:08.390Z,49.5
2022-08-28T12:00:17.566Z,49.5
2022-08-28T12:01:26.746Z,49
2022-08-28T12:02:35.916Z,47.5
2022-08-28T12:03:45.089Z,44
2022-08-28T12:04:54.257Z,42.5
2022-08-28T12:06:03.462Z,43
2022-08-28T12:07:12.599Z,43.5
2022-08-28T12:08:21.769Z,45.5
2022-08-28T12:09:30.956Z,45.5
2022-08-28T12:10:40.124Z,47.5
2022-08-28T12:11:49.295Z,48.5
2022-08-28T12:12:58.468Z,49
2022-08-28T12:14:06.650Z,49.5
2022-08-28T12:15:15.831Z,49.5
2022-08-28T12:16:25.011Z,49.5
2022-08-28T12:17:34.174Z,50
2022-08-28T12:18:43.352Z,49.5
2022-08-28T12:19:52.524Z,49.5
2022-08-28T12:21:01.694Z,47.5
2022-08-28T12:22:10.861Z,43.5
2022-08-28T12:23:19.055Z,43
2022-08-28T12:24:27.255Z,44.5
2022-08-28T12:25:36.420Z,41
2022-08-28T12:26:45.592Z,41.5
2022-08-28T12:27:54.772Z,40.5
2022-08-28T12:29:03.952Z,42
2022-08-28T12:31:22.293Z,42
2022-08-28T12:32:31.454Z,43
2022-08-28T12:33:40.622Z,43
2022-08-28T12:34:49.801Z,43
2022-08-28T12:35:58.966Z,40.5
2022-08-28T12:37:08.153Z,42.5
2022-08-28T12:38:17.313Z,43
2022-08-28T12:39:25.504Z,43.5
2022-08-28T12:40:34.672Z,43
2022-08-28T12:41:43.854Z,43
2022-08-28T12:42:53.019Z,44.5
2022-08-28T12:44:02.200Z,42.5
2022-08-28T12:45:11.358Z,43
2022-08-28T12:46:20.544Z,45
2022-08-28T12:47:28.733Z,45
2022-08-28T12:48:36.919Z,44
2022-08-28T12:49:46.090Z,46.5
2022-08-28T12:50:55.271Z,46
2022-08-28T12:52:04.445Z,44.5
2022-08-28T12:53:13.614Z,44
2022-08-28T12:54:22.785Z,44.5
2022-08-28T12:55:31.962Z,42.5
2022-08-28T12:56:41.145Z,42.5
2022-08-28T12:57:50.316Z,42.5
2022-08-28T12:58:59.471Z,41
2022-08-28T13:00:08.658Z,39
2022-08-28T13:01:17.824Z,40.5
2022-08-28T13:02:27.005Z,42.5
2022-08-28T13:03:35.174Z,44
2022-08-28T13:04:44.358Z,44
2022-08-28T13:07:02.698Z,44.5
2022-08-28T13:08:11.884Z,44
2022-08-28T13:09:21.060Z,45
2022-08-28T13:10:30.212Z,45.5
2022-08-28T13:11:39.384Z,45.5
2022-08-28T13:12:48.564Z,43.5
2022-08-28T13:15:06.915Z,44
2022-08-28T13:16:16.090Z,44.5
2022-08-28T13:17:25.251Z,42.5
2022-08-28T13:18:33.448Z,43
2022-08-28T13:19:42.624Z,41.5
2022-08-28T13:20:51.796Z,38.5
2022-08-28T13:22:00.959Z,40
2022-08-28T13:23:10.130Z,40
2022-08-28T13:24:19.301Z,39.5
2022-08-28T13:25:28.481Z,40
2022-08-28T13:26:37.653Z,40
2022-08-28T13:27:46.831Z,41
2022-08-28T13:28:56.001Z,41.5
2022-08-28T13:30:05.159Z,40.5
2022-08-28T13:31:14.342Z,40.5
2022-08-28T13:32:23.517Z,40.5
2022-08-28T13:33:31.705Z,43
2022-08-28T13:34:40.877Z,44.5
2022-08-28T13:35:50.053Z,45.5
2022-08-28T13:36:59.219Z,44.5
2022-08-28T13:38:08.387Z,45
2022-08-28T13:39:17.565Z,46.5
2022-08-28T13:40:26.745Z,47.5
2022-08-28T13:41:35.920Z,47
2022-08-28T13:42:45.092Z,46.5
2022-08-28T13:43:54.264Z,45
2022-08-28T13:45:03.433Z,42.5
2022-08-28T13:46:12.590Z,42
2022-08-28T13:47:21.774Z,41
2022-08-28T13:48:30.938Z,41
2022-08-28T13:49:39.142Z,41.5
2022-08-28T13:50:48.305Z,41
2022-08-28T13:51:57.469Z,40
2022-08-28T13:53:06.651Z,40
2022-08-28T13:54:15.832Z,40.5
2022-08-28T13:55:25.003Z,41
2022-08-28T13:56:34.177Z,39.5
2022-08-28T13:57:43.342Z,40
2022-08-28T13:58:52.512Z,38.5
2022-08-28T14:00:01.714Z,39
2022-08-28T14:01:09.881Z,37.5
2022-08-28T14:03:27.238Z,38.5
2022-08-28T14:04:36.412Z,41
2022-08-28T14:05:45.594Z,39.5
2022-08-28T14:06:54.761Z,38.5
2022-08-28T14:08:03.945Z,38.5
2022-08-28T14:09:13.110Z,39.5
2022-08-28T14:10:21.311Z,40
2022-08-28T14:11:29.490Z,40.5
2022-08-28T14:12:38.667Z,41.5
2022-08-28T14:13:47.829Z,43.5
2022-08-28T14:16:06.186Z,45.5
2022-08-28T14:17:14.376Z,45
2022-08-28T14:18:23.549Z,45.5
2022-08-28T14:19:32.718Z,46
2022-08-28T14:20:41.886Z,46
2022-08-28T14:21:51.058Z,46.5
2022-08-28T14:23:00.241Z,47.5
2022-08-28T14:24:09.422Z,46
2022-08-28T14:25:18.577Z,44
2022-08-28T14:26:27.747Z,43.5
2022-08-28T14:27:36.928Z,43.5
2022-08-28T14:28:46.103Z,43.5
2022-08-28T14:29:55.269Z,42.5
2022-08-28T14:31:04.448Z,40.5
2022-08-28T14:32:12.624Z,41.5
2022-08-28T14:33:21.807Z,40.5
2022-08-28T14:34:30.975Z,40
2022-08-28T14:35:40.154Z,40
2022-08-28T14:36:49.324Z,40
2022-08-28T14:37:58.496Z,39
2022-08-28T14:39:07.668Z,40
2022-08-28T14:40:16.849Z,41
2022-08-28T14:41:26.007Z,42
2022-08-28T14:42:35.191Z,42
2022-08-28T14:43:44.363Z,42
2022-08-28T14:44:53.535Z,42.5
2022-08-28T14:46:02.713Z,41
2022-08-28T14:47:10.900Z,41.5
2022-08-28T14:48:20.072Z,41.5
2022-08-28T14:49:29.230Z,42.5
2022-08-28T14:50:38.418Z,41.5
2022-08-28T14:51:47.605Z,42
2022-08-28T14:52:55.772Z,42
2022-08-28T14:54:03.965Z,40.5
2022-08-28T14:55:13.138Z,40.5
2022-08-28T14:56:22.312Z,40
2022-08-28T14:57:30.509Z,40
2022-08-28T14:58:39.674Z,42
2022-08-28T14:59:47.874Z,40
2022-08-28T15:00:57.039Z,41
2022-08-28T15:02:06.212Z,40.5
2022-08-28T15:03:15.385Z,40.5
2022-08-28T15:04:24.561Z,41.5
2022-08-28T15:05:33.750Z,40.5
2022-08-28T15:06:42.905Z,41.5
2022-08-28T15:07:52.081Z,40.5
2022-08-28T15:09:01.245Z,40.5
2022-08-28T15:10:10.419Z,41
2022-08-28T15:11:19.590Z,40.5
2022-08-28T15:12:28.772Z,40
2022-08-28T15:13:37.942Z,41.5
2022-08-28T15:14:46.124Z,40.5
2022-08-28T15:15:55.303Z,42
2022-08-28T15:17:04.481Z,42
2022-08-28T15:18:13.648Z,43.5
2022-08-28T15:19:22.817Z,42
2022-08-28T15:20:31.992Z,42
2022-08-28T15:21:41.159Z,43.5
2022-08-28T15:22:50.341Z,46.5
2022-08-28T15:23:59.514Z,45
2022-08-28T15:25:08.687Z,44
2022-08-28T15:26:17.869Z,45
2022-08-28T15:27:27.028Z,45.5
2022-08-28T15:28:36.207Z,46.5
2022-08-28T15:29:44.413Z,46
2022-08-28T15:30:53.562Z,46.5
2022-08-28T15:32:02.738Z,46
2022-08-28T15:33:11.934Z,46.5
2022-08-28T15:34:21.082Z,46.5
2022-08-28T15:35:30.256Z,45.5
2022-08-28T15:36:39.419Z,45
2022-08-28T15:38:57.765Z,46
2022-08-28T15:40:06.938Z,46
2022-08-28T15:41:16.108Z,46
2022-08-28T15:42:25.300Z,46.5
2022-08-28T15:43:34.460Z,48
2022-08-28T15:44:42.648Z,49
2022-08-28T15:45:51.830Z,48.5
2022-08-28T15:47:00.995Z,47
2022-08-28T15:48:10.159Z,47
2022-08-28T15:49:19.334Z,47.5
2022-08-28T15:50:28.511Z,47
2022-08-28T15:51:37.687Z,46
2022-08-28T15:52:46.857Z,46.5
2022-08-28T15:55:05.219Z,46
2022-08-28T15:56:14.375Z,46
2022-08-28T15:57:23.547Z,45.5
2022-08-28T15:58:32.728Z,46.5
2022-08-28T15:59:40.923Z,46.5
2022-08-28T16:00:50.085Z,45.5
2022-08-28T16:01:59.263Z,45.5
2022-08-28T16:03:08.435Z,46
2022-08-28T16:04:17.600Z,47
2022-08-28T16:05:26.777Z,47
2022-08-28T16:06:35.950Z,47.5
2022-08-28T16:07:45.123Z,46.5
2022-08-28T16:08:54.300Z,47
2022-08-28T16:10:03.461Z,47
2022-08-28T16:11:12.639Z,47.5